sensor_id;sensor_type;location;lat;lon;timestamp;pressure;altitude;pressure_sealevel;temperature;humidity
31585;BME280;18191;51.288;12.390;2023-04-19T00:01:55;49166.00;;;-144.47;71.88
31585;BME280;18191;51.288;12.390;2023-04-19T00:06:46;49166.00;;;-144.47;72.65
31585;BME280;18191;51.288;12.390;2023-04-19T00:11:36;49140.13;;;-144.47;72.17
31585;BME280;18191;51.288;12.390;2023-04-19T00:16:26;49140.13;;;-144.47;72.17
31585;BME280;18191;51.288;12.390;2023-04-19T00:21:16;49179.91;;;-144.47;74.66
31585;BME280;18191;51.288;12.390;2023-04-19T00:26:07;49171.97;;;-144.47;73.65
31585;BME280;18191;51.288;12.390;2023-04-19T00:30:57;49171.97;;;-144.47;71.88
31585;BME280;18191;51.288;12.390;2023-04-19T00:35:48;49183.91;;;-144.47;70.61
31585;BME280;18191;51.288;12.390;2023-04-19T00:40:38;49191.84;;;-144.47;71.49
31585;BME280;18191;51.288;12.390;2023-04-19T00:45:29;49179.91;;;-144.47;70.20
31585;BME280;18191;51.288;12.390;2023-04-19T00:50:21;49158.03;;;-144.47;70.70
31585;BME280;18191;51.288;12.390;2023-04-19T00:55:11;49166.00;;;-144.47;70.82
31585;BME280;18191;51.288;12.390;2023-04-19T01:00:02;49156.03;;;-144.47;71.34
31585;BME280;18191;51.288;12.390;2023-04-19T01:04:55;49160.03;;;-144.47;72.04
31585;BME280;18191;51.288;12.390;2023-04-19T01:09:46;49203.78;;;-144.47;71.53
31585;BME280;18191;51.288;12.390;2023-04-19T01:14:36;49160.03;;;-144.47;71.06
31585;BME280;18191;51.288;12.390;2023-04-19T01:19:27;49156.03;;;-144.47;73.04
31585;BME280;18191;51.288;12.390;2023-04-19T01:24:17;49171.97;;;-144.47;72.16
31585;BME280;18191;51.288;12.390;2023-04-19T01:29:07;49195.84;;;-144.47;72.77
31585;BME280;18191;51.288;12.390;2023-04-19T01:33:57;49175.94;;;-144.47;73.52
31585;BME280;18191;51.288;12.390;2023-04-19T01:38:49;49179.91;;;-144.47;73.97
31585;BME280;18191;51.288;12.390;2023-04-19T01:43:39;49187.88;;;-144.47;74.26
31585;BME280;18191;51.288;12.390;2023-04-19T01:48:29;49191.84;;;-144.47;72.99
31585;BME280;18191;51.288;12.390;2023-04-19T01:53:21;49179.91;;;-144.47;74.11
31585;BME280;18191;51.288;12.390;2023-04-19T01:58:11;49156.03;;;-144.47;74.23
31585;BME280;18191;51.288;12.390;2023-04-19T02:03:01;49152.06;;;-144.47;74.86
31585;BME280;18191;51.288;12.390;2023-04-19T02:07:53;49185.88;;;-144.47;74.96
31585;BME280;18191;51.288;12.390;2023-04-19T02:12:43;49164.00;;;-144.47;75.49
31585;BME280;18191;51.288;12.390;2023-04-19T02:17:33;49191.84;;;-144.47;74.99
31585;BME280;18191;51.288;12.390;2023-04-19T02:22:23;49148.09;;;-144.47;74.28
31585;BME280;18191;51.288;12.390;2023-04-19T02:27:15;49187.88;;;-144.47;75.79
31585;BME280;18191;51.288;12.390;2023-04-19T02:32:05;49164.00;;;-144.47;75.59
31585;BME280;18191;51.288;12.390;2023-04-19T02:36:56;49173.94;;;-144.47;76.20
31585;BME280;18191;51.288;12.390;2023-04-19T02:41:46;49191.84;;;-144.47;75.94
31585;BME280;18191;51.288;12.390;2023-04-19T02:46:36;49203.78;;;-144.47;77.05
31585;BME280;18191;51.288;12.390;2023-04-19T02:51:26;49128.19;;;-144.47;75.71
31585;BME280;18191;51.288;12.390;2023-04-19T02:56:16;49185.88;;;-144.47;75.54
31585;BME280;18191;51.288;12.390;2023-04-19T03:01:06;49171.97;;;-144.47;77.19
31585;BME280;18191;51.288;12.390;2023-04-19T03:05:57;49167.97;;;-144.47;76.62
31585;BME280;18191;51.288;12.390;2023-04-19T03:10:47;49175.94;;;-144.47;76.77
31585;BME280;18191;51.288;12.390;2023-04-19T03:15:37;49160.03;;;-144.47;76.73
31585;BME280;18191;51.288;12.390;2023-04-19T03:20:27;49183.91;;;-144.47;77.08
31585;BME280;18191;51.288;12.390;2023-04-19T03:25:17;49179.91;;;-144.47;77.36
31585;BME280;18191;51.288;12.390;2023-04-19T03:30:08;49160.03;;;-144.47;77.08
31585;BME280;18191;51.288;12.390;2023-04-19T03:34:58;49158.03;;;-144.47;76.20
31585;BME280;18191;51.288;12.390;2023-04-19T03:39:48;49175.94;;;-144.47;76.57
31585;BME280;18191;51.288;12.390;2023-04-19T03:44:38;49144.09;;;-144.47;77.51
31585;BME280;18191;51.288;12.390;2023-04-19T03:49:29;49199.81;;;-144.47;75.14
31585;BME280;18191;51.288;12.390;2023-04-19T03:54:19;49191.84;;;-144.47;75.85
31585;BME280;18191;51.288;12.390;2023-04-19T03:59:09;49193.84;;;-144.47;73.50
31585;BME280;18191;51.288;12.390;2023-04-19T04:04:00;49175.94;;;-144.47;73.41
31585;BME280;18191;51.288;12.390;2023-04-19T04:08:51;49175.94;;;-144.47;70.74
31585;BME280;18191;51.288;12.390;2023-04-19T04:13:41;49177.94;;;-144.47;71.13
31585;BME280;18191;51.288;12.390;2023-04-19T04:18:32;49179.91;;;-144.47;70.12
31585;BME280;18191;51.288;12.390;2023-04-19T04:23:22;49167.97;;;-144.47;68.65
31585;BME280;18191;51.288;12.390;2023-04-19T04:28:14;49175.94;;;-144.47;68.15
31585;BME280;18191;51.288;12.390;2023-04-19T04:33:04;49207.78;;;-144.47;67.79
31585;BME280;18191;51.288;12.390;2023-04-19T04:37:55;49203.78;;;-144.47;68.48
31585;BME280;18191;51.288;12.390;2023-04-19T04:42:45;49191.84;;;-144.47;68.71
31585;BME280;18191;51.288;12.390;2023-04-19T04:47:35;49171.97;;;-144.47;67.26
31585;BME280;18191;51.288;12.390;2023-04-19T04:52:26;49158.03;;;-144.47;69.02
31585;BME280;18191;51.288;12.390;2023-04-19T04:57:16;49179.91;;;-144.47;67.56
31585;BME280;18191;51.288;12.390;2023-04-19T05:02:06;49126.22;;;-144.47;65.03
31585;BME280;18191;51.288;12.390;2023-04-19T05:06:56;49164.00;;;-144.47;63.38
31585;BME280;18191;51.288;12.390;2023-04-19T05:11:46;49124.22;;;-144.47;61.51
31585;BME280;18191;51.288;12.390;2023-04-19T05:16:36;49116.25;;;-144.47;62.94
31585;BME280;18191;51.288;12.390;2023-04-19T05:21:27;49148.09;;;-144.47;59.66
31585;BME280;18191;51.288;12.390;2023-04-19T05:26:17;49158.03;;;-144.47;57.84
31585;BME280;18191;51.288;12.390;2023-04-19T05:31:08;49132.16;;;-144.47;58.12
31585;BME280;18191;51.288;12.390;2023-04-19T05:35:58;49171.97;;;-144.47;57.60
31585;BME280;18191;51.288;12.390;2023-04-19T05:40:48;49148.09;;;-144.47;54.85
31585;BME280;18191;51.288;12.390;2023-04-19T05:45:38;49158.03;;;-144.47;54.05
31585;BME280;18191;51.288;12.390;2023-04-19T05:50:29;49144.09;;;-144.47;54.17
31585;BME280;18191;51.288;12.390;2023-04-19T05:55:19;49154.06;;;-144.47;52.44
31585;BME280;18191;51.288;12.390;2023-04-19T06:00:09;49124.22;;;-144.47;54.52
31585;BME280;18191;51.288;12.390;2023-04-19T06:05:00;49138.16;;;-144.47;53.94
31585;BME280;18191;51.288;12.390;2023-04-19T06:09:53;49148.09;;;-144.47;53.12
31585;BME280;18191;51.288;12.390;2023-04-19T06:14:43;49138.16;;;-144.47;51.88
31585;BME280;18191;51.288;12.390;2023-04-19T06:19:33;49112.28;;;-144.47;52.03
31585;BME280;18191;51.288;12.390;2023-04-19T06:24:23;49132.16;;;-144.47;53.11
31585;BME280;18191;51.288;12.390;2023-04-19T06:29:13;49124.22;;;-144.47;51.94
31585;BME280;18191;51.288;12.390;2023-04-19T06:34:04;49142.13;;;-144.47;51.69
31585;BME280;18191;51.288;12.390;2023-04-19T06:38:54;49132.16;;;-144.47;51.92
31585;BME280;18191;51.288;12.390;2023-04-19T06:43:44;49166.00;;;-144.47;54.13
31585;BME280;18191;51.288;12.390;2023-04-19T06:48:34;49128.19;;;-144.47;54.78
31585;BME280;18191;51.288;12.390;2023-04-19T06:53:25;49134.16;;;-144.47;53.25
31585;BME280;18191;51.288;12.390;2023-04-19T06:58:16;49104.31;;;-144.47;54.34
31585;BME280;18191;51.288;12.390;2023-04-19T07:03:06;49171.97;;;-144.47;50.00
31585;BME280;18191;51.288;12.390;2023-04-19T07:07:56;49148.09;;;-144.47;53.33
31585;BME280;18191;51.288;12.390;2023-04-19T07:12:47;49126.22;;;-144.47;50.49
31585;BME280;18191;51.288;12.390;2023-04-19T07:17:37;49156.03;;;-144.47;50.17
31585;BME280;18191;51.288;12.390;2023-04-19T07:22:27;49152.06;;;-144.47;50.54
31585;BME280;18191;51.288;12.390;2023-04-19T07:27:17;49120.25;;;-144.47;48.96
31585;BME280;18191;51.288;12.390;2023-04-19T07:32:07;49144.09;;;-144.47;49.85
31585;BME280;18191;51.288;12.390;2023-04-19T07:36:58;49183.91;;;-144.47;50.09
31585;BME280;18191;51.288;12.390;2023-04-19T07:41:48;49100.34;;;-144.47;49.66
31585;BME280;18191;51.288;12.390;2023-04-19T07:46:40;49132.16;;;-144.47;47.84
31585;BME280;18191;51.288;12.390;2023-04-19T07:51:31;49100.34;;;-144.47;49.31
31585;BME280;18191;51.288;12.390;2023-04-19T07:56:22;49126.22;;;-144.47;48.23
31585;BME280;18191;51.288;12.390;2023-04-19T08:01:12;49132.16;;;-144.47;45.68
31585;BME280;18191;51.288;12.390;2023-04-19T08:06:02;49171.97;;;-144.47;45.62
31585;BME280;18191;51.288;12.390;2023-04-19T08:10:54;49116.25;;;-144.47;46.11
31585;BME280;18191;51.288;12.390;2023-04-19T08:15:44;49086.41;;;-144.47;45.60
31585;BME280;18191;51.288;12.390;2023-04-19T08:20:35;49116.25;;;-144.47;44.39
31585;BME280;18191;51.288;12.390;2023-04-19T08:25:25;49104.31;;;-144.47;44.21
31585;BME280;18191;51.288;12.390;2023-04-19T08:30:17;49181.91;;;-144.47;44.05
31585;BME280;18191;51.288;12.390;2023-04-19T08:35:07;49108.31;;;-144.47;47.07
31585;BME280;18191;51.288;12.390;2023-04-19T08:39:58;49096.38;;;-144.47;44.96
31585;BME280;18191;51.288;12.390;2023-04-19T08:44:49;49072.50;;;-144.47;45.84
31585;BME280;18191;51.288;12.390;2023-04-19T08:49:40;49052.59;;;-144.47;45.41
31585;BME280;18191;51.288;12.390;2023-04-19T08:54:30;49084.44;;;-144.47;44.49
31585;BME280;18191;51.288;12.390;2023-04-19T08:59:20;49060.56;;;-144.47;44.82
31585;BME280;18191;51.288;12.390;2023-04-19T09:04:10;49072.50;;;-144.47;43.46
31585;BME280;18191;51.288;12.390;2023-04-19T09:14:10;49076.47;;;-144.47;41.33
31585;BME280;18191;51.288;12.390;2023-04-19T09:19:00;49068.50;;;-144.47;39.43
31585;BME280;18191;51.288;12.390;2023-04-19T09:23:51;49072.50;;;-144.47;39.46
31585;BME280;18191;51.288;12.390;2023-04-19T09:28:46;49072.50;;;-144.47;37.92
31585;BME280;18191;51.288;12.390;2023-04-19T09:33:44;49088.41;;;-144.47;37.76
31585;BME280;18191;51.288;12.390;2023-04-19T09:38:47;49078.47;;;-144.47;38.06
31585;BME280;18191;51.288;12.390;2023-04-19T09:43:37;49116.25;;;-144.47;38.77
31585;BME280;18191;51.288;12.390;2023-04-19T09:48:27;49076.47;;;-144.47;36.96
31585;BME280;18191;51.288;12.390;2023-04-19T09:53:18;49130.19;;;-144.47;37.82
31585;BME280;18191;51.288;12.390;2023-04-19T09:58:08;49056.59;;;-144.47;36.90
31585;BME280;18191;51.288;12.390;2023-04-19T10:02:59;49050.63;;;-144.47;37.23
31585;BME280;18191;51.288;12.390;2023-04-19T10:07:49;49084.44;;;-144.47;36.79
31585;BME280;18191;51.288;12.390;2023-04-19T10:12:39;49124.22;;;-144.47;35.92
31585;BME280;18191;51.288;12.390;2023-04-19T10:17:30;49104.31;;;-144.47;37.25
31585;BME280;18191;51.288;12.390;2023-04-19T10:22:20;49070.50;;;-144.47;37.25
31585;BME280;18191;51.288;12.390;2023-04-19T10:27:11;49056.59;;;-144.47;36.22
31585;BME280;18191;51.288;12.390;2023-04-19T10:32:05;49028.72;;;-144.47;36.62
31585;BME280;18191;51.288;12.390;2023-04-19T10:36:56;49116.25;;;-144.47;35.15
31585;BME280;18191;51.288;12.390;2023-04-19T10:41:55;49056.59;;;-144.47;35.17
31585;BME280;18191;51.288;12.390;2023-04-19T10:46:46;49016.78;;;-144.47;35.77
31585;BME280;18191;51.288;12.390;2023-04-19T10:51:39;49048.63;;;-144.47;34.55
31585;BME280;18191;51.288;12.390;2023-04-19T11:01:35;49120.25;;;-144.47;35.74
31585;BME280;18191;51.288;12.390;2023-04-19T11:06:28;49068.50;;;-144.47;35.54
31585;BME280;18191;51.288;12.390;2023-04-19T11:11:19;49056.59;;;-144.47;35.16
31585;BME280;18191;51.288;12.390;2023-04-19T11:16:18;49064.53;;;-144.47;35.82
31585;BME280;18191;51.288;12.390;2023-04-19T11:21:12;49066.53;;;-144.47;35.54
31585;BME280;18191;51.288;12.390;2023-04-19T11:26:03;49066.53;;;-144.47;34.80
31585;BME280;18191;51.288;12.390;2023-04-19T11:30:54;49052.59;;;-144.47;34.69
31585;BME280;18191;51.288;12.390;2023-04-19T11:35:45;49060.56;;;-144.47;35.84
31585;BME280;18191;51.288;12.390;2023-04-19T11:40:35;49054.59;;;-144.47;35.93
31585;BME280;18191;51.288;12.390;2023-04-19T11:45:27;49056.59;;;-144.47;36.06
31585;BME280;18191;51.288;12.390;2023-04-19T11:55:27;49070.50;;;-144.47;36.79
31585;BME280;18191;51.288;12.390;2023-04-19T12:00:28;49052.59;;;-144.47;36.79
31585;BME280;18191;51.288;12.390;2023-04-19T12:05:19;49110.28;;;-144.47;36.33
31585;BME280;18191;51.288;12.390;2023-04-19T12:10:10;49032.72;;;-144.47;36.06
31585;BME280;18191;51.288;12.390;2023-04-19T12:15:01;49052.59;;;-144.47;36.82
31585;BME280;18191;51.288;12.390;2023-04-19T12:19:51;49036.69;;;-144.47;36.60
31585;BME280;18191;51.288;12.390;2023-04-19T12:24:41;49052.59;;;-144.47;35.41
31585;BME280;18191;51.288;12.390;2023-04-19T12:29:32;49026.75;;;-144.47;35.66
31585;BME280;18191;51.288;12.390;2023-04-19T12:34:23;49108.31;;;-144.47;44.92
31585;BME280;18191;51.288;12.390;2023-04-19T12:39:20;49088.41;;;-144.47;53.25
31585;BME280;18191;51.288;12.390;2023-04-19T12:44:10;49072.50;;;-144.47;50.62
31585;BME280;18191;51.288;12.390;2023-04-19T12:49:00;49088.41;;;-144.47;46.43
31585;BME280;18191;51.288;12.390;2023-04-19T12:53:51;49068.50;;;-144.47;44.23
31585;BME280;18191;51.288;12.390;2023-04-19T12:58:41;49060.56;;;-144.47;41.81
31585;BME280;18191;51.288;12.390;2023-04-19T13:03:31;49068.50;;;-144.47;39.99
31585;BME280;18191;51.288;12.390;2023-04-19T13:08:25;49068.50;;;-144.47;37.27
31585;BME280;18191;51.288;12.390;2023-04-19T13:13:15;49068.50;;;-144.47;36.58
31585;BME280;18191;51.288;12.390;2023-04-19T13:18:05;49040.66;;;-144.47;34.35
31585;BME280;18191;51.288;12.390;2023-04-19T13:22:55;49036.69;;;-144.47;35.22
31585;BME280;18191;51.288;12.390;2023-04-19T13:27:46;49092.38;;;-144.47;35.17
31585;BME280;18191;51.288;12.390;2023-04-19T13:32:36;49036.69;;;-144.47;34.31
31585;BME280;18191;51.288;12.390;2023-04-19T13:37:26;49052.59;;;-144.47;35.40
31585;BME280;18191;51.288;12.390;2023-04-19T13:42:17;49038.69;;;-144.47;34.28
31585;BME280;18191;51.288;12.390;2023-04-19T13:47:07;49072.50;;;-144.47;34.32
31585;BME280;18191;51.288;12.390;2023-04-19T13:51:58;49060.56;;;-144.47;34.23
31585;BME280;18191;51.288;12.390;2023-04-19T13:56:48;49054.59;;;-144.47;35.73
31585;BME280;18191;51.288;12.390;2023-04-19T14:01:38;49032.72;;;-144.47;35.39
31585;BME280;18191;51.288;12.390;2023-04-19T14:06:28;49014.81;;;-144.47;35.53
31585;BME280;18191;51.288;12.390;2023-04-19T14:11:18;49024.75;;;-144.47;36.00
31585;BME280;18191;51.288;12.390;2023-04-19T14:16:09;49062.56;;;-144.47;35.18
31585;BME280;18191;51.288;12.390;2023-04-19T14:21:00;49036.69;;;-144.47;34.87
31585;BME280;18191;51.288;12.390;2023-04-19T14:25:50;49044.66;;;-144.47;35.34
31585;BME280;18191;51.288;12.390;2023-04-19T14:30:40;49060.56;;;-144.47;34.01
31585;BME280;18191;51.288;12.390;2023-04-19T14:35:30;49010.81;;;-144.47;36.31
31585;BME280;18191;51.288;12.390;2023-04-19T14:40:20;49052.59;;;-144.47;36.85
31585;BME280;18191;51.288;12.390;2023-04-19T14:45:11;49042.66;;;-144.47;36.16
31585;BME280;18191;51.288;12.390;2023-04-19T14:50:01;49056.59;;;-144.47;36.22
31585;BME280;18191;51.288;12.390;2023-04-19T14:54:52;49016.78;;;-144.47;36.25
31585;BME280;18191;51.288;12.390;2023-04-19T14:59:43;49044.66;;;-144.47;37.46
31585;BME280;18191;51.288;12.390;2023-04-19T15:04:33;49072.50;;;-144.47;52.20
31585;BME280;18191;51.288;12.390;2023-04-19T15:09:24;49074.47;;;-144.47;60.87
31585;BME280;18191;51.288;12.390;2023-04-19T15:14:14;49142.13;;;-144.47;62.66
31585;BME280;18191;51.288;12.390;2023-04-19T15:19:05;49096.38;;;-144.47;61.03
31585;BME280;18191;51.288;12.390;2023-04-19T15:23:56;49100.34;;;-144.47;61.56
31585;BME280;18191;51.288;12.390;2023-04-19T15:28:46;49136.16;;;-144.47;64.21
31585;BME280;18191;51.288;12.390;2023-04-19T15:33:36;49100.34;;;-144.47;64.80
31585;BME280;18191;51.288;12.390;2023-04-19T15:38:28;49096.38;;;-144.47;61.03
31585;BME280;18191;51.288;12.390;2023-04-19T15:43:18;49104.31;;;-144.47;59.24
31585;BME280;18191;51.288;12.390;2023-04-19T15:48:09;49084.44;;;-144.47;55.33
31585;BME280;18191;51.288;12.390;2023-04-19T15:52:59;49088.41;;;-144.47;53.59
31585;BME280;18191;51.288;12.390;2023-04-19T15:57:49;49080.44;;;-144.47;54.92
31585;BME280;18191;51.288;12.390;2023-04-19T16:02:39;49122.22;;;-144.47;53.59
31585;BME280;18191;51.288;12.390;2023-04-19T16:07:29;49092.38;;;-144.47;51.98
31585;BME280;18191;51.288;12.390;2023-04-19T16:12:20;49076.47;;;-144.47;49.37
31585;BME280;18191;51.288;12.390;2023-04-19T16:17:10;49088.41;;;-144.47;50.84
31585;BME280;18191;51.288;12.390;2023-04-19T16:22:00;49078.47;;;-144.47;48.79
31585;BME280;18191;51.288;12.390;2023-04-19T16:26:54;49072.50;;;-144.47;48.71
31585;BME280;18191;51.288;12.390;2023-04-19T16:31:44;49074.47;;;-144.47;48.46
31585;BME280;18191;51.288;12.390;2023-04-19T16:36:35;49072.50;;;-144.47;48.73
31585;BME280;18191;51.288;12.390;2023-04-19T16:41:26;49082.44;;;-144.47;49.57
31585;BME280;18191;51.288;12.390;2023-04-19T16:46:16;49036.69;;;-144.47;51.38
31585;BME280;18191;51.288;12.390;2023-04-19T16:51:06;49112.28;;;-144.47;47.49
31585;BME280;18191;51.288;12.390;2023-04-19T16:55:57;49108.31;;;-144.47;49.90
31585;BME280;18191;51.288;12.390;2023-04-19T17:00:50;49072.50;;;-144.47;49.61
31585;BME280;18191;51.288;12.390;2023-04-19T17:05:41;49062.56;;;-144.47;54.43
31585;BME280;18191;51.288;12.390;2023-04-19T17:10:31;49064.53;;;-144.47;52.88
31585;BME280;18191;51.288;12.390;2023-04-19T17:15:21;49106.31;;;-144.47;54.32
31585;BME280;18191;51.288;12.390;2023-04-19T17:20:13;49096.38;;;-144.47;54.92
31585;BME280;18191;51.288;12.390;2023-04-19T17:25:04;49088.41;;;-144.47;53.80
31585;BME280;18191;51.288;12.390;2023-04-19T17:29:54;49108.31;;;-144.47;54.96
31585;BME280;18191;51.288;12.390;2023-04-19T17:34:45;49094.38;;;-144.47;56.95
31585;BME280;18191;51.288;12.390;2023-04-19T17:39:35;49116.25;;;-144.47;56.38
31585;BME280;18191;51.288;12.390;2023-04-19T17:44:25;49070.50;;;-144.47;55.54
31585;BME280;18191;51.288;12.390;2023-04-19T17:49:15;49120.25;;;-144.47;56.30
31585;BME280;18191;51.288;12.390;2023-04-19T17:54:07;49112.28;;;-144.47;56.33
31585;BME280;18191;51.288;12.390;2023-04-19T17:58:59;49098.34;;;-144.47;55.88
31585;BME280;18191;51.288;12.390;2023-04-19T18:03:52;49088.41;;;-144.47;57.10
31585;BME280;18191;51.288;12.390;2023-04-19T18:08:42;49098.34;;;-144.47;56.77
31585;BME280;18191;51.288;12.390;2023-04-19T18:13:32;49072.50;;;-144.47;56.79
31585;BME280;18191;51.288;12.390;2023-04-19T18:18:23;49108.31;;;-144.47;57.14
31585;BME280;18191;51.288;12.390;2023-04-19T18:23:13;49134.16;;;-144.47;59.37
31585;BME280;18191;51.288;12.390;2023-04-19T18:28:03;49092.38;;;-144.47;57.34
31585;BME280;18191;51.288;12.390;2023-04-19T18:32:53;49080.44;;;-144.47;58.92
31585;BME280;18191;51.288;12.390;2023-04-19T18:37:44;49122.22;;;-144.47;61.55
31585;BME280;18191;51.288;12.390;2023-04-19T18:42:34;49100.34;;;-144.47;61.34
31585;BME280;18191;51.288;12.390;2023-04-19T18:47:25;49088.41;;;-144.47;61.14
31585;BME280;18191;51.288;12.390;2023-04-19T18:52:15;49080.44;;;-144.47;59.63
31585;BME280;18191;51.288;12.390;2023-04-19T18:57:08;49122.22;;;-144.47;63.68
31585;BME280;18191;51.288;12.390;2023-04-19T19:01:58;49090.41;;;-144.47;68.92
31585;BME280;18191;51.288;12.390;2023-04-19T19:06:48;49106.31;;;-144.47;71.57
31585;BME280;18191;51.288;12.390;2023-04-19T19:11:39;49124.22;;;-144.47;72.89
31585;BME280;18191;51.288;12.390;2023-04-19T19:16:29;49100.34;;;-144.47;75.15
31585;BME280;18191;51.288;12.390;2023-04-19T19:21:20;49088.41;;;-144.47;78.41
31585;BME280;18191;51.288;12.390;2023-04-19T19:26:10;49116.25;;;-144.47;78.99
31585;BME280;18191;51.288;12.390;2023-04-19T19:31:01;49100.34;;;-144.47;80.30
31585;BME280;18191;51.288;12.390;2023-04-19T19:35:52;49104.31;;;-144.47;80.51
31585;BME280;18191;51.288;12.390;2023-04-19T19:40:42;49092.38;;;-144.47;81.95
31585;BME280;18191;51.288;12.390;2023-04-19T19:45:32;49072.50;;;-144.47;83.70
31585;BME280;18191;51.288;12.390;2023-04-19T19:50:22;49108.31;;;-144.47;82.87
31585;BME280;18191;51.288;12.390;2023-04-19T19:55:13;49134.16;;;-144.47;82.92
31585;BME280;18191;51.288;12.390;2023-04-19T20:00:03;49112.28;;;-144.47;81.86
31585;BME280;18191;51.288;12.390;2023-04-19T20:04:54;49088.41;;;-144.47;82.31
31585;BME280;18191;51.288;12.390;2023-04-19T20:09:44;49120.25;;;-144.47;82.53
31585;BME280;18191;51.288;12.390;2023-04-19T20:14:35;49128.19;;;-144.47;83.80
31585;BME280;18191;51.288;12.390;2023-04-19T20:19:26;49108.31;;;-144.47;83.07
31585;BME280;18191;51.288;12.390;2023-04-19T20:24:16;49088.41;;;-144.47;83.44
31585;BME280;18191;51.288;12.390;2023-04-19T20:29:06;49106.31;;;-144.47;82.46
31585;BME280;18191;51.288;12.390;2023-04-19T20:33:57;49108.31;;;-144.47;82.35
31585;BME280;18191;51.288;12.390;2023-04-19T20:38:48;49140.13;;;-144.47;80.42
31585;BME280;18191;51.288;12.390;2023-04-19T20:43:38;49076.47;;;-144.47;82.22
31585;BME280;18191;51.288;12.390;2023-04-19T20:48:28;49110.28;;;-144.47;84.74
31585;BME280;18191;51.288;12.390;2023-04-19T20:53:18;49128.19;;;-144.47;83.83
31585;BME280;18191;51.288;12.390;2023-04-19T20:58:09;49098.34;;;-144.47;82.41
31585;BME280;18191;51.288;12.390;2023-04-19T21:02:59;49108.31;;;-144.47;83.80
31585;BME280;18191;51.288;12.390;2023-04-19T21:07:49;49096.38;;;-144.47;83.93
31585;BME280;18191;51.288;12.390;2023-04-19T21:12:40;49130.19;;;-144.47;83.23
31585;BME280;18191;51.288;12.390;2023-04-19T21:17:30;49148.09;;;-144.47;86.07
31585;BME280;18191;51.288;12.390;2023-04-19T21:22:20;49128.19;;;-144.47;86.45
31585;BME280;18191;51.288;12.390;2023-04-19T21:27:10;49100.34;;;-144.47;86.70
31585;BME280;18191;51.288;12.390;2023-04-19T21:32:00;49118.25;;;-144.47;86.01
31585;BME280;18191;51.288;12.390;2023-04-19T21:36:51;49128.19;;;-144.47;85.58
31585;BME280;18191;51.288;12.390;2023-04-19T21:41:41;49144.09;;;-144.47;85.87
31585;BME280;18191;51.288;12.390;2023-04-19T21:46:31;49084.44;;;-144.47;86.99
31585;BME280;18191;51.288;12.390;2023-04-19T21:51:22;49148.09;;;-144.47;86.35
31585;BME280;18191;51.288;12.390;2023-04-19T21:56:12;49092.38;;;-144.47;86.58
31585;BME280;18191;51.288;12.390;2023-04-19T22:01:02;49160.03;;;-144.47;84.91
31585;BME280;18191;51.288;12.390;2023-04-19T22:05:52;49102.34;;;-144.47;84.98
31585;BME280;18191;51.288;12.390;2023-04-19T22:10:43;49108.31;;;-144.47;85.03
31585;BME280;18191;51.288;12.390;2023-04-19T22:15:33;49164.00;;;-144.47;86.29
31585;BME280;18191;51.288;12.390;2023-04-19T22:20:24;49136.16;;;-144.47;86.76
31585;BME280;18191;51.288;12.390;2023-04-19T22:25:14;49096.38;;;-144.47;86.04
31585;BME280;18191;51.288;12.390;2023-04-19T22:30:05;49144.09;;;-144.47;83.59
31585;BME280;18191;51.288;12.390;2023-04-19T22:34:55;49100.34;;;-144.47;83.92
31585;BME280;18191;51.288;12.390;2023-04-19T22:39:45;49118.25;;;-144.47;83.95
31585;BME280;18191;51.288;12.390;2023-04-19T22:44:36;49104.31;;;-144.47;85.23
31585;BME280;18191;51.288;12.390;2023-04-19T22:49:26;49124.22;;;-144.47;86.20
31585;BME280;18191;51.288;12.390;2023-04-19T22:54:16;49088.41;;;-144.47;87.07
31585;BME280;18191;51.288;12.390;2023-04-19T22:59:06;49150.06;;;-144.47;87.71
31585;BME280;18191;51.288;12.390;2023-04-19T23:04:00;49090.41;;;-144.47;87.43
31585;BME280;18191;51.288;12.390;2023-04-19T23:08:50;49136.16;;;-144.47;86.67
31585;BME280;18191;51.288;12.390;2023-04-19T23:13:40;49124.22;;;-144.47;87.55
31585;BME280;18191;51.288;12.390;2023-04-19T23:18:31;49138.16;;;-144.47;86.60
31585;BME280;18191;51.288;12.390;2023-04-19T23:23:21;49136.16;;;-144.47;86.82
31585;BME280;18191;51.288;12.390;2023-04-19T23:28:11;49106.31;;;-144.47;86.22
31585;BME280;18191;51.288;12.390;2023-04-19T23:33:01;49118.25;;;-144.47;86.92
31585;BME280;18191;51.288;12.390;2023-04-19T23:37:51;49134.16;;;-144.47;87.36
31585;BME280;18191;51.288;12.390;2023-04-19T23:42:42;49084.44;;;-144.47;86.80
31585;BME280;18191;51.288;12.390;2023-04-19T23:47:32;49126.22;;;-144.47;87.72
31585;BME280;18191;51.288;12.390;2023-04-19T23:52:22;49108.31;;;-144.47;88.72
31585;BME280;18191;51.288;12.390;2023-04-19T23:57:14;49114.28;;;-144.47;87.28
